createdAt,value
2022-08-09T00:04:10.778Z,17.10
2022-08-09T00:07:49.656Z,17.05
2022-08-09T00:12:03.536Z,16.88
2022-08-09T00:16:06.815Z,16.81
2022-08-09T00:20:12.075Z,16.74
2022-08-09T00:24:14.904Z,16.73
2022-08-09T00:28:17.097Z,16.70
2022-08-09T00:32:26.820Z,16.64
2022-08-09T00:36:30.672Z,16.56
2022-08-09T00:40:33.002Z,16.55
2022-08-09T00:44:40.541Z,16.44
2022-08-09T00:48:47.553Z,16.35
2022-08-09T00:52:55.098Z,16.29
2022-08-09T00:56:57.154Z,16.09
2022-08-09T01:00:59.402Z,16.03
2022-08-09T01:05:14.017Z,15.98
2022-08-09T01:09:48.477Z,15.91
2022-08-09T01:14:01.639Z,15.86
2022-08-09T01:18:14.202Z,15.88
2022-08-09T01:22:25.285Z,15.86
2022-08-09T01:26:54.726Z,15.90
2022-08-09T01:31:00.557Z,15.87
2022-08-09T01:35:29.123Z,15.75
2022-08-09T01:39:35.681Z,15.65
2022-08-09T01:43:47.962Z,15.67
2022-08-09T01:47:56.024Z,15.82
2022-08-09T01:52:07.301Z,15.86
2022-08-09T01:56:12.331Z,15.84
2022-08-09T02:00:34.974Z,15.77
2022-08-09T02:04:40.595Z,15.71
2022-08-09T02:08:57.997Z,15.60
2022-08-09T02:13:06.184Z,15.41
2022-08-09T02:17:29.365Z,15.27
2022-08-09T02:21:39.444Z,15.13
2022-08-09T02:25:52.467Z,15.14
2022-08-09T02:29:57.262Z,15.16
2022-08-09T02:34:41.345Z,15.13
2022-08-09T02:38:54.552Z,15.18
2022-08-09T02:43:03.013Z,15.13
2022-08-09T02:47:11.263Z,15.12
2022-08-09T02:51:18.317Z,15.12
2022-08-09T02:55:46.710Z,15.08
2022-08-09T03:00:20.801Z,15.03
2022-08-09T03:04:20.012Z,14.97
2022-08-09T03:08:45.626Z,14.92
2022-08-09T03:12:51.901Z,14.93
2022-08-09T03:16:55.449Z,14.85
2022-08-09T03:21:02.932Z,14.81
2022-08-09T03:25:26.731Z,14.74
2022-08-09T03:29:57.388Z,14.74
2022-08-09T03:33:58.798Z,14.58
2022-08-09T03:38:06.193Z,14.53
2022-08-09T03:42:12.845Z,14.47
2022-08-09T03:46:29.223Z,14.43
2022-08-09T03:50:35.043Z,14.45
2022-08-09T03:54:40.460Z,14.48
2022-08-09T03:58:43.209Z,14.33
2022-08-09T04:02:52.718Z,14.23
2022-08-09T04:06:58.082Z,14.30
2022-08-09T04:11:01.396Z,14.30
2022-08-09T04:15:11.442Z,14.44
2022-08-09T04:19:15.954Z,14.55
2022-08-09T04:23:32.637Z,14.42
2022-08-09T04:27:41.079Z,14.34
2022-08-09T04:31:47.721Z,14.40
2022-08-09T04:35:51.044Z,14.44
2022-08-09T04:39:54.863Z,14.61
2022-08-09T04:44:06.665Z,14.98
2022-08-09T04:48:16.997Z,16.82
2022-08-09T04:52:29.728Z,18.05
2022-08-09T04:56:37.326Z,19.65
2022-08-09T05:00:48.546Z,21.43
2022-08-09T05:04:55.158Z,22.33
2022-08-09T05:09:00.462Z,20.76
2022-08-09T05:13:06.009Z,20.16
2022-08-09T05:17:15.220Z,22.34
2022-08-09T05:21:46.610Z,24.50
2022-08-09T05:25:51.055Z,22.69
2022-08-09T05:29:53.338Z,21.54
2022-08-09T05:33:56.325Z,20.77
2022-08-09T05:37:59.223Z,19.97
2022-08-09T05:42:04.651Z,22.58
2022-08-09T05:46:08.057Z,26.58
2022-08-09T05:50:35.156Z,28.55
2022-08-09T05:54:35.144Z,29.62
2022-08-09T05:58:37.218Z,31.47
2022-08-09T06:02:46.535Z,33.17
2022-08-09T06:06:49.868Z,34.37
2022-08-09T06:10:54.957Z,34.78
2022-08-09T06:15:00.912Z,35.58
2022-08-09T06:19:04.365Z,35.99
2022-08-09T06:23:08.365Z,36.45
2022-08-09T06:27:15.793Z,36.86
2022-08-09T06:31:18.058Z,37.26
2022-08-09T06:35:55.746Z,37.17
2022-08-09T06:40:00.648Z,37.01
2022-08-09T06:44:06.038Z,37.29
2022-08-09T06:48:09.178Z,36.87
2022-08-09T06:52:12.280Z,36.90
2022-08-09T06:56:18.064Z,37.34
2022-08-09T07:00:50.248Z,37.10
2022-08-09T07:04:42.347Z,36.96
2022-08-09T07:08:44.966Z,36.59
2022-08-09T07:12:57.254Z,31.80
2022-08-09T07:17:00.000Z,27.99
2022-08-09T07:21:02.084Z,26.04
2022-08-09T07:25:05.520Z,24.84
2022-08-09T07:29:13.441Z,24.12
2022-08-09T07:33:16.702Z,23.57
2022-08-09T07:37:18.867Z,23.25
2022-08-09T07:41:24.333Z,23.26
2022-08-09T07:45:39.662Z,23.15
2022-08-09T07:50:04.278Z,23.05
2022-08-09T07:54:08.573Z,23.00
2022-08-09T07:58:14.333Z,23.00
2022-08-09T08:02:19.181Z,23.02
2022-08-09T08:06:21.644Z,22.74
2022-08-09T08:10:34.743Z,22.80
2022-08-09T08:14:37.805Z,22.96
2022-08-09T08:18:39.893Z,23.04
2022-08-09T08:22:48.581Z,23.19
2022-08-09T08:26:56.079Z,23.17
2022-08-09T08:30:58.646Z,23.25
2022-08-09T08:35:00.917Z,23.36
2022-08-09T08:39:04.270Z,23.45
2022-08-09T08:43:13.161Z,23.58
2022-08-09T08:47:15.929Z,23.76
2022-08-09T08:51:18.368Z,23.95
2022-08-09T08:55:23.567Z,24.09
2022-08-09T08:59:40.929Z,24.12
2022-08-09T09:03:50.495Z,24.32
2022-08-09T09:07:54.101Z,24.48
2022-08-09T09:11:59.231Z,24.62
2022-08-09T09:16:01.696Z,24.74
2022-08-09T09:20:11.009Z,24.91
2022-08-09T09:24:21.948Z,25.08
2022-08-09T09:29:01.669Z,25.33
2022-08-09T09:33:15.729Z,25.53
2022-08-09T09:37:31.806Z,25.69
2022-08-09T09:41:48.661Z,25.81
2022-08-09T09:45:57.516Z,25.94
2022-08-09T09:50:23.011Z,26.03
2022-08-09T09:54:25.536Z,26.21
2022-08-09T09:58:49.089Z,26.32
2022-08-09T10:02:51.266Z,26.54
2022-08-09T10:06:54.453Z,26.63
2022-08-09T10:10:56.633Z,26.63
2022-08-09T10:15:50.941Z,26.77
2022-08-09T10:19:39.477Z,26.80
2022-08-09T10:23:43.081Z,26.77
2022-08-09T10:27:56.887Z,26.81
2022-08-09T10:32:28.601Z,26.92
2022-08-09T10:36:22.843Z,26.96
2022-08-09T10:40:33.260Z,27.10
2022-08-09T10:44:39.925Z,27.19
2022-08-09T10:48:51.359Z,27.19
2022-08-09T10:53:10.364Z,27.10
2022-08-09T10:57:14.228Z,27.14
2022-08-09T11:03:11.318Z,27.23
2022-08-09T11:06:20.986Z,27.32
2022-08-09T11:10:47.303Z,27.57
2022-08-09T11:14:58.574Z,27.68
2022-08-09T11:19:01.179Z,27.68
2022-08-09T11:23:07.091Z,27.67
2022-08-09T11:28:03.745Z,27.65
2022-08-09T11:31:53.158Z,27.54
2022-08-09T11:35:59.500Z,27.72
2022-08-09T11:40:05.951Z,27.86
2022-08-09T11:44:08.669Z,27.98
2022-08-09T11:48:26.466Z,27.94
2022-08-09T11:52:59.155Z,27.99
2022-08-09T11:56:51.181Z,28.06
2022-08-09T12:01:08.987Z,28.18
2022-08-09T12:05:22.849Z,28.06
2022-08-09T12:09:27.996Z,28.19
2022-08-09T12:14:09.407Z,28.49
2022-08-09T12:18:01.538Z,28.61
2022-08-09T12:22:05.591Z,28.72
2022-08-09T12:26:07.670Z,28.68
2022-08-09T12:30:35.538Z,28.58
2022-08-09T12:34:42.213Z,28.67
2022-08-09T12:38:45.064Z,28.62
2022-08-09T12:42:50.489Z,28.67
2022-08-09T12:46:52.996Z,28.77
2022-08-09T12:50:55.927Z,28.82
2022-08-09T12:56:13.099Z,29.00
2022-08-09T12:59:57.626Z,29.08
2022-08-09T13:03:58.807Z,29.03
2022-08-09T13:08:17.377Z,29.11
2022-08-09T13:12:23.589Z,29.27
2022-08-09T13:16:45.899Z,29.24
2022-08-09T13:21:03.875Z,29.18
2022-08-09T13:25:11.860Z,29.25
2022-08-09T13:29:20.612Z,29.33
2022-08-09T13:33:52.688Z,29.48
2022-08-09T13:37:55.950Z,29.78
2022-08-09T13:42:12.232Z,29.92
2022-08-09T13:47:14.440Z,29.73
2022-08-09T13:50:36.907Z,29.35
2022-08-09T13:54:41.778Z,29.09
2022-08-09T13:58:53.248Z,29.01
2022-08-09T14:03:04.462Z,29.28
2022-08-09T14:07:17.665Z,29.65
2022-08-09T14:11:20.181Z,30.04
2022-08-09T14:16:09.710Z,30.18
2022-08-09T14:19:44.368Z,29.88
2022-08-09T14:23:54.725Z,29.51
2022-08-09T14:27:59.046Z,29.15
2022-08-09T14:32:05.837Z,28.85
2022-08-09T14:36:19.628Z,29.00
2022-08-09T14:40:38.883Z,29.21
2022-08-09T14:44:48.827Z,29.30
2022-08-09T14:49:02.797Z,29.46
2022-08-09T14:53:11.475Z,29.60
2022-08-09T14:57:14.871Z,29.72
2022-08-09T15:01:20.610Z,29.98
2022-08-09T15:05:22.795Z,29.89
2022-08-09T15:10:03.128Z,29.64
2022-08-09T15:13:48.156Z,29.32
2022-08-09T15:17:58.760Z,29.01
2022-08-09T15:22:02.557Z,28.97
2022-08-09T15:26:05.188Z,29.13
2022-08-09T15:30:48.280Z,29.23
2022-08-09T15:34:35.618Z,29.31
2022-08-09T15:38:37.884Z,29.36
2022-08-09T15:42:42.603Z,29.39
2022-08-09T15:46:44.793Z,29.48
2022-08-09T15:50:50.393Z,29.39
2022-08-09T15:54:52.488Z,29.27
2022-08-09T15:58:54.645Z,29.17
2022-08-09T16:02:57.085Z,29.13
2022-08-09T16:06:59.193Z,29.09
2022-08-09T16:11:04.203Z,29.03
2022-08-09T16:16:10.350Z,29.09
2022-08-09T16:19:36.659Z,29.07
2022-08-09T16:23:38.980Z,29.08
2022-08-09T16:27:41.086Z,29.04
2022-08-09T16:32:18.317Z,28.93
2022-08-09T16:36:13.130Z,28.76
2022-08-09T16:40:29.557Z,28.75
2022-08-09T16:44:42.058Z,28.68
2022-08-09T16:48:53.774Z,28.64
2022-08-09T16:53:02.026Z,28.58
2022-08-09T16:57:04.140Z,28.50
2022-08-09T17:01:07.392Z,28.39
2022-08-09T17:05:12.188Z,28.34
2022-08-09T17:09:45.403Z,28.29
2022-08-09T17:13:37.436Z,28.20
2022-08-09T17:17:50.326Z,28.11
2022-08-09T17:21:55.794Z,28.01
2022-08-09T17:26:01.751Z,27.92
2022-08-09T17:30:09.502Z,27.85
2022-08-09T17:34:59.748Z,27.75
2022-08-09T17:38:39.481Z,27.67
2022-08-09T17:42:43.244Z,27.57
2022-08-09T17:46:49.145Z,27.44
2022-08-09T17:50:59.327Z,27.34
2022-08-09T17:55:12.203Z,27.22
2022-08-09T17:59:16.922Z,27.11
2022-08-09T18:03:19.155Z,26.98
2022-08-09T18:07:24.089Z,26.87
2022-08-09T18:11:29.517Z,26.76
2022-08-09T18:16:05.433Z,26.62
2022-08-09T18:20:59.880Z,26.48
2022-08-09T18:24:15.852Z,26.33
2022-08-09T18:30:34.645Z,26.19
2022-08-09T18:32:40.012Z,26.04
2022-08-09T18:36:43.853Z,25.88
2022-08-09T18:40:53.427Z,25.73
2022-08-09T18:44:55.511Z,25.61
2022-08-09T18:49:02.065Z,25.46
2022-08-09T18:53:04.718Z,25.33
2022-08-09T18:57:15.578Z,25.15
2022-08-09T19:01:17.682Z,25.00
2022-08-09T19:05:41.379Z,24.79
2022-08-09T19:10:14.280Z,24.66
2022-08-09T19:14:07.745Z,24.49
2022-08-09T19:18:17.105Z,24.38
2022-08-09T19:22:35.182Z,24.20
2022-08-09T19:26:38.370Z,24.09
2022-08-09T19:30:44.615Z,23.98
2022-08-09T19:34:52.613Z,23.81
2022-08-09T19:38:56.049Z,23.66
2022-08-09T19:42:58.096Z,23.52
2022-08-09T19:47:01.959Z,23.41
2022-08-09T19:51:04.607Z,23.22
2022-08-09T19:55:07.318Z,23.00
2022-08-09T19:59:39.786Z,22.89
2022-08-09T20:04:18.640Z,22.74
2022-08-09T20:07:59.422Z,22.58
2022-08-09T20:12:02.944Z,22.46
2022-08-09T20:16:34.154Z,22.34
2022-08-09T20:20:30.706Z,22.26
2022-08-09T20:24:34.241Z,22.20
2022-08-09T20:28:48.059Z,22.11
2022-08-09T20:32:52.651Z,21.90
2022-08-09T20:36:55.388Z,21.79
2022-08-09T20:40:57.466Z,21.71
2022-08-09T20:45:56.072Z,21.54
2022-08-09T20:49:23.238Z,21.29
2022-08-09T20:53:36.311Z,21.12
2022-08-09T20:58:08.249Z,20.98
2022-08-09T21:02:02.823Z,20.88
2022-08-09T21:06:05.039Z,20.75
2022-08-09T21:10:07.674Z,20.66
2022-08-09T21:14:10.016Z,20.62
2022-08-09T21:18:25.393Z,20.47
2022-08-09T21:22:38.451Z,20.32
2022-08-09T21:26:41.396Z,20.26
2022-08-09T21:30:44.278Z,20.15
2022-08-09T21:34:49.106Z,19.92
2022-08-09T21:38:58.012Z,19.78
2022-08-09T21:43:01.190Z,19.70
2022-08-09T21:47:07.722Z,19.43
2022-08-09T21:51:13.439Z,19.30
2022-08-09T21:55:20.651Z,19.32
2022-08-09T21:59:23.242Z,19.21
2022-08-09T22:03:27.887Z,19.09
2022-08-09T22:07:41.549Z,18.92
2022-08-09T22:12:18.165Z,18.87
2022-08-09T22:16:14.835Z,18.74
2022-08-09T22:20:21.964Z,18.62
2022-08-09T22:24:29.537Z,18.60
2022-08-09T22:28:33.219Z,18.52
2022-08-09T22:32:35.441Z,18.48
2022-08-09T22:36:46.108Z,18.47
2022-08-09T22:40:57.583Z,18.40
2022-08-09T22:48:12.116Z,18.25
2022-08-09T22:49:23.512Z,18.13
2022-08-09T22:53:25.629Z,18.25
2022-08-09T22:57:36.493Z,18.27
2022-08-09T23:01:41.642Z,18.33
2022-08-09T23:05:45.853Z,18.30
2022-08-09T23:09:48.097Z,18.31
2022-08-09T23:13:52.825Z,18.32
2022-08-09T23:17:55.849Z,18.22
2022-08-09T23:21:57.936Z,18.01
2022-08-09T23:26:00.794Z,17.87
2022-08-09T23:30:04.040Z,17.82
2022-08-09T23:34:06.148Z,17.84
2022-08-09T23:38:08.395Z,17.68
2022-08-09T23:42:10.427Z,17.57
2022-08-09T23:46:12.552Z,17.52
2022-08-09T23:50:14.568Z,17.43
2022-08-09T23:54:16.600Z,17.33
2022-08-09T23:58:27.540Z,17.22
